(°C)
13°
13°
12°
12°
12°
11°
11°
(°C)
12°
10°
10°
10°
10°
10°
10°
SSW
SW
SW
SSW
NE
N
SW
(km/h)
2-18
10-20
8-19
5-16
6-19
1-14
3-17
(mm)
0
1
1.1
2.2
2.2
2
2.1
(%)
31
45
55
76
83
91
84

Wysokość słońca

/ -19.9°
sun-icon
UV 4
07:12
18:55
Sierp przybywający (83°)
15:00
22:44

METAR dla Innsbruck (LOWI)

Czas Warunki Temperatura/
Punkt rosy
Wiatr Widzialność Pogoda Chmury Ciśn. atm. Zmień Surowy
VFR 13°C / 13°C variable 1kt >10km Light Rain 1.00mm precipitation Vertical Visibility of 0ft.
Scattered Clouds 2300ft
Broken Clouds 7000ft
1020 Temporary: Showers Rain . LOWI 021820Z VRB01KT 9999 -RA FEW007 SCT023 BKN070 13/13 Q1020 TEMPO SHRA
VFR 13°C / 13°C 140º variable 110º to 180º 3kt >10km - Few Clouds 1100ft
Broken Clouds 9000ft
1019 Temporary: Showers Rain . LOWI 021750Z 14003KT 110V180 9999 FEW011 BKN090 13/13 Q1019 TEMPO SHRA
VFR 13°C / 13°C variable 2kt >10km - Few Clouds 1100ft
Broken Clouds 9000ft
1019 Temporary: Showers Rain . LOWI 021720Z VRB02KT 9999 FEW011 BKN090 13/13 Q1019 TEMPO SHRA
VFR 14°C / 13°C 110º variable 070º to 140º 4kt >10km - Few Clouds 800ft
Broken Clouds 9000ft
1019 Temporary: Showers Rain . LOWI 021650Z 11004KT 070V140 9999 FEW008 BKN090 14/13 Q1019 TEMPO SHRA
VFR 14°C / 13°C 110º 5kt >10km - Few Clouds 1600ft
Scattered Clouds 9000ft
1019 Temporary: from 1700 Showers Rain . LOWI 021620Z 11005KT 9999 FEW016 SCT090 14/13 Q1019 TEMPO FM1700 SHRA
VFR 14°C / 13°C 80º variable 050º to 110º 5kt >10km - Few Clouds 1200ft
Scattered Clouds 1600ft
Broken Clouds 7000ft
1019 No Significant change LOWI 021550Z 08005KT 050V110 9999 FEW012 SCT016 BKN070 14/13 Q1019 NOSIG
VFR 15°C / 13°C 160º 2kt >10km Light Rain 1.00mm precipitation Vertical Visibility of 0ft.
Broken Clouds 7000ft
1019 Temporary: Showers Rain . LOWI 021520Z 16002KT 9999 -RA FEW012 BKN070 15/13 Q1019 RESHRA TEMPO SHRA
VFR 15°C / 13°C variable 2kt >10km Light Showers Rain 3.00mm precipitation Vertical Visibility of 0ft.
Broken Clouds 8000ft
1019 Temporary: Showers Rain . LOWI 021450Z VRB02KT 9999 -SHRA FEW011 BKN080 15/13 Q1019 TEMPO SHRA
VFR 15°C / 12°C 90º 5kt >10km - Few Clouds 1100ft
Broken Clouds 8000ft
1019 Temporary: Showers Rain . LOWI 021420Z 09005KT 9999 FEW011 BKN080 15/12 Q1019 TEMPO SHRA
VFR 15°C / 12°C 90º 3kt >10km Light Showers Rain 3.00mm precipitation Vertical Visibility of 0ft.
Broken Clouds 7000ft
1020 Temporary: Showers Rain . LOWI 021350Z 09003KT 9999 -SHRA FEW015 BKN070 15/12 Q1020 TEMPO SHRA
VFR 15°C / 12°C variable 2kt >10km Light Rain 1.00mm precipitation Vertical Visibility of 0ft.
Broken Clouds 8000ft
1020 Temporary: Wind 270º 10kt. Showers Rain . LOWI 021320Z VRB02KT 9999 -RA FEW015 BKN080 15/12 Q1020 TEMPO 27010KT SHRA
VFR 15°C / 12°C variable 2kt >10km Light Showers Rain 3.00mm precipitation Vertical Visibility of 0ft.
Broken Clouds 8000ft
1020 Temporary: Wind 270º 10kt. Showers Rain . LOWI 021250Z VRB02KT 9999 -SHRA FEW015 BKN080 15/12 Q1020 TEMPO 27010KT SHRA
VFR 15°C / 12°C 80º 5kt >10km - Few Clouds 1000ft
Broken Clouds 8000ft
1020 Temporary: Wind 270º 10kt. Showers Rain . LOWI 021220Z 08005KT 9999 FEW010 BKN080 15/12 Q1020 TEMPO 27010KT SHRA
VFR 15°C / 12°C 70º 5kt >10km - Few Clouds 1000ft
Broken Clouds 8000ft
1020 Temporary: Wind 270º 10kt. Showers Rain . LOWI 021150Z 07005KT 9999 FEW010 BKN080 15/12 Q1020 TEMPO 27010KT SHRA
VFR 15°C / 11°C 90º variable 070º to 150º 4kt >10km - Few Clouds 1000ft
Scattered Clouds 5000ft
Broken Clouds 8000ft
1021 Temporary: Wind 270º 10kt. Showers Rain . LOWI 021120Z 09004KT 070V150 9999 FEW010 SCT050 BKN080 15/11 Q1021 TEMPO 27010KT SHRA
VFR 14°C / 12°C 100º variable 060º to 150º 3kt >10km Light Showers Rain 3.00mm precipitation Vertical Visibility of 0ft.
Scattered Clouds 5000ft
Broken Clouds 8000ft
1021 No Significant change LOWI 021050Z 10003KT 060V150 9999 -SHRA FEW010 SCT050 BKN080 14/12 Q1021 NOSIG
VFR 14°C / 11°C variable 2kt >10km Light Showers Rain 3.00mm precipitation Vertical Visibility of 0ft.
Scattered Clouds 4000ft
Broken Clouds 7000ft
1022 Temporary: Wind 270º 10kt. Showers Rain . LOWI 021020Z VRB02KT 9999 -SHRA FEW008 SCT040 BKN070 14/11 Q1022 TEMPO 27010KT SHRA
VFR 14°C / 11°C variable 3kt >10km Light Showers Rain 3.00mm precipitation Vertical Visibility of 0ft.
Scattered Clouds 4000ft
Broken Clouds 7000ft
1022 Temporary: Wind 270º 10kt. Showers Rain . LOWI 020950Z VRB03KT 9999 -SHRA FEW008 SCT040 BKN070 14/11 Q1022 TEMPO 27010KT SHRA
VFR 13°C / 11°C variable 2kt >10km - Few Clouds 600ft
Scattered Clouds 6000ft
Broken Clouds 8000ft
1022 Temporary: Wind 270º 10kt. Showers Rain . LOWI 020920Z VRB02KT 9999 FEW006 SCT060 BKN080 13/11 Q1022 TEMPO 27010KT SHRA
VFR 12°C / 11°C variable 2kt >10km - Few Clouds 500ft
Scattered Clouds 2000ft
Broken Clouds 8000ft
1022 No Significant change LOWI 020850Z VRB02KT 9999 FEW005 SCT020 BKN080 12/11 Q1022 NOSIG
VFR 12°C / 10°C variable 2kt >10km - Few Clouds 500ft
Scattered Clouds 1000ft
Broken Clouds 7000ft
1022 No Significant change LOWI 020820Z VRB02KT 9999 FEW005 SCT010 BKN070 12/10 Q1022 NOSIG
VFR 12°C / 11°C variable 2kt >10km - Few Clouds 400ft
Scattered Clouds 1200ft
Broken Clouds 7000ft
1022 No Significant change LOWI 020750Z VRB02KT 9999 FEW004 SCT012 BKN070 12/11 Q1022 NOSIG
VFR 11°C / 11°C variable 1kt >10km Light Rain 1.00mm precipitation Vertical Visibility of 0ft.
Scattered Clouds 3000ft
Broken Clouds 7000ft
1023 No Significant change LOWI 020720Z VRB01KT 9999 -RA FEW004 SCT030 BKN070 11/11 Q1023 NOSIG
VFR 11°C / 11°C variable 1kt >10km Light Rain 1.00mm precipitation Vertical Visibility of 0ft.
Scattered Clouds 3000ft
Broken Clouds 7000ft
1022 No Significant change LOWI 020650Z VRB01KT 9999 -RA FEW004 SCT030 BKN070 11/11 Q1022 NOSIG

VFR

13°C / 13°C

[Więcej]
Wiatr variable 1kt
Widzialność >10km
Pogoda Light Rain 1.00mm precipitation
Chmury Vertical Visibility of 0ft.
Scattered Clouds 2300ft
Broken Clouds 7000ft
Ciśn. atm. 1020
Zmień Temporary: Showers Rain .
Surowy LOWI 021820Z VRB01KT 9999 -RA FEW007 SCT023 BKN070 13/13 Q1020 TEMPO SHRA

VFR

13°C / 13°C

[Więcej]
Wiatr 140º variable 110º to 180º 3kt
Widzialność >10km
Pogoda -
Chmury Few Clouds 1100ft
Broken Clouds 9000ft
Ciśn. atm. 1019
Zmień Temporary: Showers Rain .
Surowy LOWI 021750Z 14003KT 110V180 9999 FEW011 BKN090 13/13 Q1019 TEMPO SHRA

VFR

13°C / 13°C

[Więcej]
Wiatr variable 2kt
Widzialność >10km
Pogoda -
Chmury Few Clouds 1100ft
Broken Clouds 9000ft
Ciśn. atm. 1019
Zmień Temporary: Showers Rain .
Surowy LOWI 021720Z VRB02KT 9999 FEW011 BKN090 13/13 Q1019 TEMPO SHRA

VFR

14°C / 13°C

[Więcej]
Wiatr 110º variable 070º to 140º 4kt
Widzialność >10km
Pogoda -
Chmury Few Clouds 800ft
Broken Clouds 9000ft
Ciśn. atm. 1019
Zmień Temporary: Showers Rain .
Surowy LOWI 021650Z 11004KT 070V140 9999 FEW008 BKN090 14/13 Q1019 TEMPO SHRA

VFR

14°C / 13°C

[Więcej]
Wiatr 110º 5kt
Widzialność >10km
Pogoda -
Chmury Few Clouds 1600ft
Scattered Clouds 9000ft
Ciśn. atm. 1019
Zmień Temporary: from 1700 Showers Rain .
Surowy LOWI 021620Z 11005KT 9999 FEW016 SCT090 14/13 Q1019 TEMPO FM1700 SHRA

VFR

14°C / 13°C

[Więcej]
Wiatr 80º variable 050º to 110º 5kt
Widzialność >10km
Pogoda -
Chmury Few Clouds 1200ft
Scattered Clouds 1600ft
Broken Clouds 7000ft
Ciśn. atm. 1019
Zmień No Significant change
Surowy LOWI 021550Z 08005KT 050V110 9999 FEW012 SCT016 BKN070 14/13 Q1019 NOSIG

VFR

15°C / 13°C

[Więcej]
Wiatr 160º 2kt
Widzialność >10km
Pogoda Light Rain 1.00mm precipitation
Chmury Vertical Visibility of 0ft.
Broken Clouds 7000ft
Ciśn. atm. 1019
Zmień Temporary: Showers Rain .
Surowy LOWI 021520Z 16002KT 9999 -RA FEW012 BKN070 15/13 Q1019 RESHRA TEMPO SHRA

VFR

15°C / 13°C

[Więcej]
Wiatr variable 2kt
Widzialność >10km
Pogoda Light Showers Rain 3.00mm precipitation
Chmury Vertical Visibility of 0ft.
Broken Clouds 8000ft
Ciśn. atm. 1019
Zmień Temporary: Showers Rain .
Surowy LOWI 021450Z VRB02KT 9999 -SHRA FEW011 BKN080 15/13 Q1019 TEMPO SHRA

VFR

15°C / 12°C

[Więcej]
Wiatr 90º 5kt
Widzialność >10km
Pogoda -
Chmury Few Clouds 1100ft
Broken Clouds 8000ft
Ciśn. atm. 1019
Zmień Temporary: Showers Rain .
Surowy LOWI 021420Z 09005KT 9999 FEW011 BKN080 15/12 Q1019 TEMPO SHRA

VFR

15°C / 12°C

[Więcej]
Wiatr 90º 3kt
Widzialność >10km
Pogoda Light Showers Rain 3.00mm precipitation
Chmury Vertical Visibility of 0ft.
Broken Clouds 7000ft
Ciśn. atm. 1020
Zmień Temporary: Showers Rain .
Surowy LOWI 021350Z 09003KT 9999 -SHRA FEW015 BKN070 15/12 Q1020 TEMPO SHRA

VFR

15°C / 12°C

[Więcej]
Wiatr variable 2kt
Widzialność >10km
Pogoda Light Rain 1.00mm precipitation
Chmury Vertical Visibility of 0ft.
Broken Clouds 8000ft
Ciśn. atm. 1020
Zmień Temporary: Wind 270º 10kt. Showers Rain .
Surowy LOWI 021320Z VRB02KT 9999 -RA FEW015 BKN080 15/12 Q1020 TEMPO 27010KT SHRA

VFR

15°C / 12°C

[Więcej]
Wiatr variable 2kt
Widzialność >10km
Pogoda Light Showers Rain 3.00mm precipitation
Chmury Vertical Visibility of 0ft.
Broken Clouds 8000ft
Ciśn. atm. 1020
Zmień Temporary: Wind 270º 10kt. Showers Rain .
Surowy LOWI 021250Z VRB02KT 9999 -SHRA FEW015 BKN080 15/12 Q1020 TEMPO 27010KT SHRA

VFR

15°C / 12°C

[Więcej]
Wiatr 80º 5kt
Widzialność >10km
Pogoda -
Chmury Few Clouds 1000ft
Broken Clouds 8000ft
Ciśn. atm. 1020
Zmień Temporary: Wind 270º 10kt. Showers Rain .
Surowy LOWI 021220Z 08005KT 9999 FEW010 BKN080 15/12 Q1020 TEMPO 27010KT SHRA

VFR

15°C / 12°C

[Więcej]
Wiatr 70º 5kt
Widzialność >10km
Pogoda -
Chmury Few Clouds 1000ft
Broken Clouds 8000ft
Ciśn. atm. 1020
Zmień Temporary: Wind 270º 10kt. Showers Rain .
Surowy LOWI 021150Z 07005KT 9999 FEW010 BKN080 15/12 Q1020 TEMPO 27010KT SHRA

VFR

15°C / 11°C

[Więcej]
Wiatr 90º variable 070º to 150º 4kt
Widzialność >10km
Pogoda -
Chmury Few Clouds 1000ft
Scattered Clouds 5000ft
Broken Clouds 8000ft
Ciśn. atm. 1021
Zmień Temporary: Wind 270º 10kt. Showers Rain .
Surowy LOWI 021120Z 09004KT 070V150 9999 FEW010 SCT050 BKN080 15/11 Q1021 TEMPO 27010KT SHRA

VFR

14°C / 12°C

[Więcej]
Wiatr 100º variable 060º to 150º 3kt
Widzialność >10km
Pogoda Light Showers Rain 3.00mm precipitation
Chmury Vertical Visibility of 0ft.
Scattered Clouds 5000ft
Broken Clouds 8000ft
Ciśn. atm. 1021
Zmień No Significant change
Surowy LOWI 021050Z 10003KT 060V150 9999 -SHRA FEW010 SCT050 BKN080 14/12 Q1021 NOSIG

VFR

14°C / 11°C

[Więcej]
Wiatr variable 2kt
Widzialność >10km
Pogoda Light Showers Rain 3.00mm precipitation
Chmury Vertical Visibility of 0ft.
Scattered Clouds 4000ft
Broken Clouds 7000ft
Ciśn. atm. 1022
Zmień Temporary: Wind 270º 10kt. Showers Rain .
Surowy LOWI 021020Z VRB02KT 9999 -SHRA FEW008 SCT040 BKN070 14/11 Q1022 TEMPO 27010KT SHRA

VFR

14°C / 11°C

[Więcej]
Wiatr variable 3kt
Widzialność >10km
Pogoda Light Showers Rain 3.00mm precipitation
Chmury Vertical Visibility of 0ft.
Scattered Clouds 4000ft
Broken Clouds 7000ft
Ciśn. atm. 1022
Zmień Temporary: Wind 270º 10kt. Showers Rain .
Surowy LOWI 020950Z VRB03KT 9999 -SHRA FEW008 SCT040 BKN070 14/11 Q1022 TEMPO 27010KT SHRA

VFR

13°C / 11°C

[Więcej]
Wiatr variable 2kt
Widzialność >10km
Pogoda -
Chmury Few Clouds 600ft
Scattered Clouds 6000ft
Broken Clouds 8000ft
Ciśn. atm. 1022
Zmień Temporary: Wind 270º 10kt. Showers Rain .
Surowy LOWI 020920Z VRB02KT 9999 FEW006 SCT060 BKN080 13/11 Q1022 TEMPO 27010KT SHRA

VFR

12°C / 11°C

[Więcej]
Wiatr variable 2kt
Widzialność >10km
Pogoda -
Chmury Few Clouds 500ft
Scattered Clouds 2000ft
Broken Clouds 8000ft
Ciśn. atm. 1022
Zmień No Significant change
Surowy LOWI 020850Z VRB02KT 9999 FEW005 SCT020 BKN080 12/11 Q1022 NOSIG

VFR

12°C / 10°C

[Więcej]
Wiatr variable 2kt
Widzialność >10km
Pogoda -
Chmury Few Clouds 500ft
Scattered Clouds 1000ft
Broken Clouds 7000ft
Ciśn. atm. 1022
Zmień No Significant change
Surowy LOWI 020820Z VRB02KT 9999 FEW005 SCT010 BKN070 12/10 Q1022 NOSIG

VFR

12°C / 11°C

[Więcej]
Wiatr variable 2kt
Widzialność >10km
Pogoda -
Chmury Few Clouds 400ft
Scattered Clouds 1200ft
Broken Clouds 7000ft
Ciśn. atm. 1022
Zmień No Significant change
Surowy LOWI 020750Z VRB02KT 9999 FEW004 SCT012 BKN070 12/11 Q1022 NOSIG

VFR

11°C / 11°C

[Więcej]
Wiatr variable 1kt
Widzialność >10km
Pogoda Light Rain 1.00mm precipitation
Chmury Vertical Visibility of 0ft.
Scattered Clouds 3000ft
Broken Clouds 7000ft
Ciśn. atm. 1023
Zmień No Significant change
Surowy LOWI 020720Z VRB01KT 9999 -RA FEW004 SCT030 BKN070 11/11 Q1023 NOSIG

VFR

11°C / 11°C

[Więcej]
Wiatr variable 1kt
Widzialność >10km
Pogoda Light Rain 1.00mm precipitation
Chmury Vertical Visibility of 0ft.
Scattered Clouds 3000ft
Broken Clouds 7000ft
Ciśn. atm. 1022
Zmień No Significant change
Surowy LOWI 020650Z VRB01KT 9999 -RA FEW004 SCT030 BKN070 11/11 Q1022 NOSIG

TAF dla Innsbruck (LOWI)

From till


Maximum Temperature 18ºC on . Minimum Temperature 11ºC on .
From till Wind 80º 4kt. Visibility 10km or more. Few Clouds 700ft. Broken Clouds 7000ft.
Temporarly from till Wind 270º 10kt. Gust 20kt. Showers Rain .
Becoming from till Wind 80º 4kt. Visibility 10km or more. Rain . Few Clouds 500ft. Broken Clouds 1200ft.
Temporarly from till Visibility 4000m. Light Rain . Scattered Clouds 400ft. Broken Clouds 800ft.
Becoming from till Wind 80º 4kt. Visibility 10km or more. Scattered Clouds 500ft. Broken Clouds 4000ft.
Becoming from till Wind 80º 8kt. Visibility 10km or more. Scattered Clouds 500ft. Broken Clouds 4000ft.

Surowy: TAF LOWI 021715Z 0218/0318 08004KT 9999 FEW007 BKN070 TX18/0314Z TN11/0302Z TEMPO 0218/0221 27010G20KT SHRA BECMG 0221/0223 RA FEW005 BKN012 BECMG 0302/0304 NSW SCT005 BKN040 TEMPO 0302/0307 4000 -RA SCT004 BKN008 BECMG 0310/0312 08008KT

Radar dla Innsbruck

Mżawka
Lekkie
Umiarkowane
Intensywne
Bardzo Intensywne
Grad

Wskaźnik lokalizacji jest umieszczony na Innsbruck. Animacja przedstawia radar opadów dla ostatniej godziny, jak również 2h prognozę pogody. Mżawka i lekkie opady mogą być niewidoczne na radarze. Intensywność opadów jest oznaczona kolorami od jasnoniebieskiego do ciemnofioletowego.
Copyright 2022 Deutscher Wetterdienst / meteoblue.

Aktualne zdjęcia satelitarne i zdjęcia opadów deszczu dla Innsbruck, Austria

Wskaźnik lokalizacji znajduje się na Innsbruck. [Więcej]

Obraz satelitarny w czasie rzeczywistym łączy światło widzialne w ciągu dnia z promieniowaniem podczerwonym w nocy. W nocy obraz nie jest ciemny, ponieważ promieniowanie podczerwone może wykrywać różnice temperatur. Niestety niskie chmury i mgłę trudno odróżnić od temperatury gruntu, przez co mogą być prawie niewidoczne w nocy. Zdjęcia satelitarne Meteosat dla Europy są aktualizowane w czasie rzeczywistym co 5 minut. Obrazy GOES-16/GOES-17 (Ameryka Północna i Południowa) oraz Himawari (Azja) są aktualizowane co 10 minut.

Opady są szacowane na podstawie radarów i satelitów. Szacunki opadów z satelitów są mniej dokładne w nocy niż w ciągu dnia. Pomarańczowe krzyżyki oznaczają miejsca, gdzie zaobserwowano pioruny (nad Europa).

Prawa autorskie 2022 EUMETSAT / meteoblue. Dane dot. błyskawic dostarczone przez nowcast.

Powrót do góry